Time;durP1;ratioP1;P1;durP2;ratioP2;P2;SDS_P1;SDS_P2;PMS_P1;PMS_P2;Temp;Humidity;BMP_temperature;BMP_pressure;BME280_temperature;BME280_humidity;BME280_pressure;Samples;Min_cycle;Max_cycle;Signal;HPM_P1;HPM_P2
2022/08/19 00:00:21;;;;;;;13.38;11.88;;;;;;;25.07;54.51;99886.72;1769188;80;21061;-76
2022/08/19 00:02:49;;;;;;;17.30;11.83;;;;;;;25.09;54.53;99883.16;1769727;80;21284;-76
2022/08/19 00:05:15;;;;;;;14.93;11.08;;;;;;;25.10;54.55;99879.34;1770770;81;20975;-76
2022/08/19 00:07:42;;;;;;;14.35;10.85;;;;;;;25.11;54.52;99876.89;1770902;81;21043;-76
2022/08/19 00:10:09;;;;;;;13.78;10.80;;;;;;;25.12;54.54;99873.05;1770721;81;21405;-76
2022/08/19 00:12:37;;;;;;;16.05;10.23;;;;;;;25.11;54.51;99872.80;1770708;81;20939;-76
2022/08/19 00:15:06;;;;;;;14.38;10.30;;;;;;;25.12;54.52;99873.62;1769935;80;22321;-76
2022/08/19 00:17:32;;;;;;;15.98;10.03;;;;;;;25.11;54.51;99872.80;1770799;81;21511;-76
2022/08/19 00:19:58;;;;;;;13.70;10.98;;;;;;;25.11;54.50;99882.35;1770830;81;21451;-76
2022/08/19 00:22:26;;;;;;;17.07;11.28;;;;;;;25.13;54.51;99886.15;1766893;80;21492;-76
2022/08/19 00:24:52;;;;;;;13.70;10.55;;;;;;;25.12;54.55;99875.77;1770752;80;21039;-76
2022/08/19 00:27:18;;;;;;;11.35;10.08;;;;;;;25.11;54.55;99875.53;1770547;81;22777;-76
2022/08/19 00:29:44;;;;;;;12.35;10.00;;;;;;;25.11;54.58;99870.07;1770891;81;20809;-76
2022/08/19 00:32:11;;;;;;;17.32;11.75;;;;;;;25.08;54.59;99862.44;1768314;80;20923;-76
2022/08/19 00:34:37;;;;;;;16.55;10.68;;;;;;;25.04;54.61;99857.27;1770856;81;21028;-76
2022/08/19 00:37:04;;;;;;;12.23;10.10;;;;;;;25.01;54.64;99853.73;1770676;81;20992;-76
2022/08/19 00:39:30;;;;;;;15.83;10.45;;;;;;;24.96;54.69;99850.19;1770864;81;21719;-76
2022/08/19 00:41:57;;;;;;;18.17;10.70;;;;;;;24.91;54.78;99845.55;1770759;81;20979;-76
2022/08/19 00:44:26;;;;;;;16.27;10.88;;;;;;;24.85;54.84;99838.48;1770906;81;21449;-76
2022/08/19 00:46:54;;;;;;;14.50;11.03;;;;;;;24.78;54.94;99844.74;1734591;81;21387;-76
2022/08/19 00:49:36;;;;;;;12.65;11.35;;;;;;;24.72;55.04;99844.49;1764997;80;21003;-76
2022/08/19 00:52:08;;;;;;;15.65;11.28;;;;;;;24.65;55.16;99840.69;1720748;81;21658;-76
2022/08/19 00:54:36;;;;;;;12.30;10.82;;;;;;;24.59;55.27;99834.16;1757787;81;21019;-76
2022/08/19 00:57:05;;;;;;;23.18;12.13;;;;;;;24.51;55.41;99834.72;1718625;81;21012;-76
2022/08/19 00:59:31;;;;;;;;;;;;;;;24.44;55.54;99830.91;1773636;80;20915;-76
2022/08/19 01:01:57;;;;;;;17.98;11.70;;;;;;;24.38;55.67;99828.72;1773605;80;20448;-76
2022/08/19 01:04:24;;;;;;;19.02;12.05;;;;;;;24.32;55.78;99824.91;1774099;80;21561;-76
2022/08/19 01:06:50;;;;;;;16.17;12.33;;;;;;;24.27;55.90;99821.66;1770807;80;21217;-76
2022/08/19 01:09:16;;;;;;;13.83;12.18;;;;;;;24.20;56.05;99826.58;1769176;80;21047;-76
2022/08/19 01:11:43;;;;;;;17.75;13.43;;;;;;;24.16;56.21;99835.55;1774248;80;21003;-76
2022/08/19 01:14:09;;;;;;;17.00;13.00;;;;;;;24.09;56.34;99826.80;1752218;80;20910;-76
2022/08/19 01:16:35;;;;;;;17.98;12.23;;;;;;;24.03;56.49;99824.61;1767908;80;22374;-76
2022/08/19 01:19:01;;;;;;;15.60;12.18;;;;;;;23.97;56.64;99832.52;1774095;80;20971;-76
2022/08/19 01:21:38;;;;;;;18.00;12.15;;;;;;;23.93;56.82;99842.31;1764959;80;21093;-76
2022/08/19 01:24:04;;;;;;;13.88;12.25;;;;;;;23.88;56.98;99832.78;1763658;80;20988;-76
2022/08/19 01:26:30;;;;;;;14.03;12.60;;;;;;;23.83;57.11;99828.14;1774586;80;21046;-76
2022/08/19 01:28:58;;;;;;;19.52;12.75;;;;;;;23.77;57.27;99822.96;1767183;80;21503;-75
2022/08/19 01:31:30;;;;;;;25.00;14.43;;;;;;;23.72;57.41;99816.95;1763684;80;21019;-76
2022/08/19 01:33:56;;;;;;;14.00;12.60;;;;;;;23.69;57.54;99815.31;1764404;80;20987;-75
2022/08/19 01:36:30;;;;;;;16.10;12.78;;;;;;;23.65;57.67;99810.95;1769614;80;21456;-75
2022/08/19 01:38:57;;;;;;;15.63;13.20;;;;;;;23.60;57.82;99803.33;1763845;80;21024;-76
2022/08/19 01:41:24;;;;;;;16.48;12.70;;;;;;;23.55;57.99;99796.50;1762965;80;21527;-76
2022/08/19 01:43:51;;;;;;;14.05;12.63;;;;;;;23.51;58.13;99791.31;1764626;80;20899;-76
2022/08/19 01:46:17;;;;;;;13.25;11.38;;;;;;;23.48;58.27;99806.83;1767472;80;20999;-76
2022/08/19 01:48:44;;;;;;;16.25;11.48;;;;;;;23.48;58.42;99806.83;1774096;80;21015;-76
2022/08/19 01:51:10;;;;;;;12.40;11.00;;;;;;;23.47;58.55;99802.50;1765569;80;21054;-76
2022/08/19 01:53:37;;;;;;;12.60;11.28;;;;;;;23.45;58.65;99798.67;1774405;80;21433;-76
2022/08/19 01:56:04;;;;;;;17.98;11.83;;;;;;;23.45;58.79;99800.57;1771632;80;21436;-76
2022/08/19 01:58:38;;;;;;;16.93;12.45;;;;;;;23.49;58.85;99807.12;1764201;80;20911;-76
2022/08/19 02:01:04;;;;;;;16.20;11.78;;;;;;;23.47;58.90;99799.78;1787754;80;20999;-76
2022/08/19 02:03:30;;;;;;;15.55;12.18;;;;;;;23.45;58.99;99806.02;1785387;79;21021;-77
2022/08/19 02:05:59;;;;;;;15.28;12.05;;;;;;;23.45;59.06;99807.38;1788875;80;21453;-76
2022/08/19 02:08:27;;;;;;;19.20;12.78;;;;;;;23.42;59.16;99798.39;1788207;80;21510;-76
2022/08/19 02:10:53;;;;;;;16.67;12.30;;;;;;;23.42;59.21;99802.47;1788858;80;20991;-76
2022/08/19 02:13:19;;;;;;;14.55;11.38;;;;;;;23.39;59.26;99803.80;1788902;80;21062;-76
2022/08/19 02:15:45;;;;;;;16.90;12.07;;;;;;;23.37;59.35;99798.61;1788349;80;20982;-76
2022/08/19 02:18:12;;;;;;;13.03;11.63;;;;;;;23.34;59.42;99799.16;1787154;79;21414;-76
2022/08/19 02:20:38;;;;;;;12.98;11.57;;;;;;;23.30;59.49;99789.89;1788740;80;20983;-76
2022/08/19 02:23:05;;;;;;;16.97;12.65;;;;;;;23.25;59.58;99787.17;1788689;80;20959;-76
2022/08/19 02:25:31;;;;;;;14.40;11.75;;;;;;;23.20;59.65;99784.42;1784211;79;20973;-76
2022/08/19 02:27:57;;;;;;;17.95;12.00;;;;;;;23.15;59.79;99780.87;1787671;80;20987;-76
2022/08/19 02:30:24;;;;;;;12.82;11.55;;;;;;;23.10;59.92;99781.67;1787484;79;22221;-76
2022/08/19 02:32:51;;;;;;;14.03;12.53;;;;;;;23.06;60.09;99778.38;1784591;79;21034;-76
2022/08/19 02:35:18;;;;;;;17.10;12.50;;;;;;;23.02;60.22;99767.75;1786405;80;21097;-76
2022/08/19 02:40:29;;;;;;;15.58;13.22;;;;;;;22.92;60.45;99767.17;1754423;80;21039;-76
2022/08/19 02:42:55;;;;;;;16.15;14.38;;;;;;;22.87;60.56;99751.65;1766500;80;21300;-76
2022/08/19 02:45:22;;;;;;;17.35;14.25;;;;;;;22.81;60.64;99750.54;1783179;80;21456;-76
2022/08/19 02:47:48;;;;;;;17.77;14.45;;;;;;;22.74;60.83;99755.41;1787300;79;20996;-76
2022/08/19 02:50:14;;;;;;;15.78;14.07;;;;;;;22.69;60.95;99751.31;1788259;80;20975;-76
2022/08/19 02:52:40;;;;;;;17.05;13.48;;;;;;;22.66;61.08;99754.54;1787406;80;20975;-76
2022/08/19 02:55:08;;;;;;;16.05;14.28;;;;;;;22.63;61.21;99742.80;1786815;79;21456;-76
2022/08/19 02:57:34;;;;;;;18.92;16.45;;;;;;;22.61;61.34;99739.02;1788318;80;21961;-76
2022/08/19 03:00:01;;;;;;;25.30;18.07;;;;;;;22.59;61.48;99739.01;1789832;79;21038;-75
2022/08/19 03:02:28;;;;;;;20.70;16.30;;;;;;;22.56;61.63;99736.25;1791306;78;21141;-76
2022/08/19 03:04:54;;;;;;;20.95;13.60;;;;;;;22.58;61.76;99737.36;1792810;80;20965;-76
2022/08/19 03:07:20;;;;;;;22.73;13.60;;;;;;;22.58;61.89;99734.64;1792503;80;21062;-76
2022/08/19 03:09:46;;;;;;;29.60;14.28;;;;;;;22.58;62.01;99737.36;1792641;80;21030;-76
2022/08/19 03:12:12;;;;;;;33.40;13.45;;;;;;;22.57;62.08;99733.00;1792542;80;21487;-76
2022/08/19 03:14:38;;;;;;;17.65;14.93;;;;;;;22.56;62.18;99723.20;1792770;80;21508;-76
2022/08/19 03:17:04;;;;;;;18.02;14.23;;;;;;;22.54;62.28;99716.69;1792380;78;21046;-75
2022/08/19 03:19:31;;;;;;;16.85;13.88;;;;;;;22.52;62.38;99736.50;1786450;78;21176;-76
2022/08/19 03:21:57;;;;;;;13.88;12.50;;;;;;;22.52;62.47;99741.14;1791865;80;21041;-76
2022/08/19 03:24:23;;;;;;;14.55;13.03;;;;;;;22.52;62.55;99739.78;1791304;80;21038;-76
2022/08/19 03:26:52;;;;;;;16.37;14.53;;;;;;;22.48;62.64;99752.27;1791746;80;21010;-76
2022/08/19 03:29:19;;;;;;;16.23;13.22;;;;;;;22.48;62.68;99748.19;1791950;80;21491;-76
2022/08/19 03:31:45;;;;;;;14.78;13.20;;;;;;;22.50;62.77;99756.87;1792450;80;21236;-76
2022/08/19 03:34:13;;;;;;;14.43;12.43;;;;;;;22.53;62.82;99769.94;1791953;78;21018;-76
2022/08/19 03:36:39;;;;;;;18.17;12.85;;;;;;;22.54;62.83;99772.41;1793370;78;21042;-76
2022/08/19 03:39:05;;;;;;;15.72;12.40;;;;;;;22.55;62.88;99770.52;1770500;81;21008;-76
2022/08/19 03:41:36;;;;;;;17.57;12.55;;;;;;;22.57;62.89;99781.39;1771123;81;20960;-76
2022/08/19 03:44:02;;;;;;;15.60;12.70;;;;;;;22.56;62.95;99775.67;1771165;81;21912;-76
2022/08/19 03:46:30;;;;;;;15.15;12.55;;;;;;;22.55;62.99;99771.33;1770628;81;21476;-76
2022/08/19 03:48:58;;;;;;;17.00;14.50;;;;;;;22.52;63.07;99771.05;1771031;81;21499;-76
2022/08/19 03:51:36;;;;;;;17.12;14.13;;;;;;;22.50;63.12;99773.19;1768127;80;21000;-76
2022/08/19 03:54:04;;;;;;;21.70;16.15;;;;;;;22.45;63.15;99773.97;1769364;80;21059;-76
2022/08/19 03:56:30;;;;;;;18.62;13.32;;;;;;;22.42;63.21;99781.29;1728198;81;21212;-76
2022/08/19 03:58:57;;;;;;;14.60;13.20;;;;;;;22.39;63.29;99775.84;1770588;81;20989;-76
2022/08/19 04:01:27;;;;;;;14.78;13.28;;;;;;;22.35;63.31;99785.59;1779118;80;21050;-76
2022/08/19 04:03:53;;;;;;;15.68;12.95;;;;;;;22.31;63.38;99783.66;1778695;80;21011;-76
2022/08/19 04:06:22;;;;;;;17.50;12.80;;;;;;;22.29;63.44;99780.39;1786652;79;21008;-76
2022/08/19 04:08:50;;;;;;;16.05;12.68;;;;;;;22.25;63.51;99773.31;1789105;80;21157;-76
2022/08/19 04:11:22;;;;;;;19.85;13.90;;;;;;;22.23;63.59;99774.13;1787988;79;20995;-76
2022/08/19 04:13:50;;;;;;;19.65;13.65;;;;;;;22.21;63.67;99765.93;1788392;80;21548;-76
2022/08/19 04:16:18;;;;;;;17.45;13.45;;;;;;;22.19;63.78;99770.28;1788540;80;21310;-76
2022/08/19 04:18:44;;;;;;;20.97;15.05;;;;;;;22.20;63.88;99771.11;1786112;79;20944;-75
2022/08/19 04:21:17;;;;;;;23.62;17.27;;;;;;;22.20;63.94;99778.69;1788766;80;21147;-76
2022/08/19 04:23:43;;;;;;;18.80;13.80;;;;;;;22.20;64.04;99781.41;1788920;80;21424;-76
2022/08/19 04:26:16;;;;;;;23.38;13.32;;;;;;;22.25;64.14;99786.07;1788896;80;21459;-76
2022/08/19 04:28:43;;;;;;;19.98;13.25;;;;;;;22.28;64.19;99794.52;1788325;80;21499;-76
2022/08/19 04:31:15;;;;;;;14.95;13.45;;;;;;;22.31;64.24;99794.52;1789110;80;21008;-76
2022/08/19 04:33:41;;;;;;;14.53;12.93;;;;;;;22.39;64.34;99784.53;1782723;79;21148;-76
2022/08/19 04:36:09;;;;;;;22.40;13.65;;;;;;;22.70;64.39;99778.76;1788822;80;21066;-76
2022/08/19 04:38:35;;;;;;;20.50;13.60;;;;;;;23.02;64.25;99775.91;1788765;80;21560;-76
2022/08/19 04:43:50;;;;;;;15.25;13.28;;;;;;;23.56;63.78;99784.53;1781185;80;21086;-76
2022/08/19 04:46:17;;;;;;;24.82;12.63;;;;;;;23.61;63.51;99787.28;1775801;80;21495;-76
2022/08/19 04:48:43;;;;;;;19.25;13.22;;;;;;;23.57;63.28;99781.56;1785778;79;21125;-76
2022/08/19 04:51:12;;;;;;;20.05;12.05;;;;;;;23.65;63.31;99784.27;1788566;80;20975;-76
2022/08/19 04:53:39;;;;;;;17.98;12.98;;;;;;;24.01;63.23;99775.03;1788637;80;21010;-76
2022/08/19 04:56:11;;;;;;;15.30;13.05;;;;;;;24.34;62.82;99775.86;1786531;79;21018;-76
2022/08/19 04:58:39;;;;;;;20.20;12.68;;;;;;;24.53;62.44;99779.34;1788660;80;21743;-76
2022/08/19 05:01:05;;;;;;;13.95;12.55;;;;;;;24.66;62.00;99777.42;1788151;79;20954;-76
2022/08/19 05:03:33;;;;;;;37.30;12.25;;;;;;;24.87;61.73;99776.84;1778675;80;21379;-76
2022/08/19 05:06:10;;;;;;;67.60;14.65;;;;;;;24.99;61.36;99769.95;1773776;80;21053;-77
2022/08/19 05:08:39;;;;;;;16.93;13.98;;;;;;;25.03;60.92;99766.12;1766480;80;20994;-76
2022/08/19 05:11:15;;;;;;;17.27;12.83;;;;;;;24.91;60.65;99771.89;1788544;80;21666;-76
2022/08/19 05:13:42;;;;;;;14.40;12.90;;;;;;;24.56;60.66;99772.00;1788286;80;20998;-76
2022/08/19 05:16:09;;;;;;;26.68;12.63;;;;;;;24.44;60.76;99761.93;1771820;80;21055;-76
2022/08/19 05:24:08;;;;;;;15.23;13.10;;;;;;;24.05;60.81;99766.59;1783562;80;21624;-76
2022/08/19 05:26:38;;;;;;;20.05;13.32;;;;;;;23.90;60.88;99769.31;1783728;80;21030;-76
2022/08/19 05:29:04;;;;;;;16.75;13.50;;;;;;;23.88;60.96;99764.69;1787891;80;20979;-76
2022/08/19 05:31:31;;;;;;;17.60;12.93;;;;;;;23.91;61.00;99757.33;1788308;80;21000;-76
2022/08/19 05:33:58;;;;;;;15.50;13.43;;;;;;;24.01;61.03;99761.41;1786426;80;21439;-76
2022/08/19 05:36:28;;;;;;;21.90;13.95;;;;;;;24.11;61.04;99754.59;1788425;80;21840;-76
2022/08/19 05:38:54;;;;;;;19.23;13.38;;;;;;;24.21;61.04;99761.95;1788188;80;21002;-76
2022/08/19 05:41:23;;;;;;;20.45;12.53;;;;;;;24.27;60.93;99768.52;1788455;80;21011;-76
2022/08/19 05:43:49;;;;;;;22.30;13.28;;;;;;;24.33;60.95;99770.13;1788341;80;21459;-76
2022/08/19 05:46:19;;;;;;;17.25;13.50;;;;;;;24.44;60.84;99783.73;1786984;80;20986;-76
2022/08/19 05:48:45;;;;;;;46.75;26.05;;;;;;;24.43;60.78;99788.91;1783942;80;21654;-76
2022/08/19 05:51:12;;;;;;;28.55;14.30;;;;;;;24.49;60.68;99776.36;1787971;80;21038;-76
2022/08/19 05:53:38;;;;;;;18.82;13.15;;;;;;;24.60;60.68;99792.97;1788568;80;21034;-76
2022/08/19 05:56:12;;;;;;;15.90;12.90;;;;;;;24.79;60.54;99799.47;1786337;80;21002;-77
2022/08/19 05:58:39;;;;;;;16.82;14.60;;;;;;;24.99;60.38;99785.50;1788472;80;21085;-76
2022/08/19 06:01:12;;;;;;;14.65;12.93;;;;;;;25.17;60.27;99796.62;1788068;80;22022;-76
2022/08/19 06:03:39;;;;;;;19.20;14.55;;;;;;;25.29;59.99;99786.20;1786880;80;21023;-77
2022/08/19 06:06:07;;;;;;;20.92;14.23;;;;;;;25.42;59.90;99801.67;1788479;80;21034;-77
2022/08/19 06:08:36;;;;;;;14.53;12.82;;;;;;;25.67;59.74;99785.16;1788207;80;21003;-76
2022/08/19 06:11:27;;;;;;;19.02;12.80;;;;;;;25.80;59.46;99781.78;1768459;80;21565;-76
2022/08/19 06:13:53;;;;;;;18.65;12.10;;;;;;;25.96;59.28;99783.31;1762372;80;22761;-77
2022/08/19 06:16:21;;;;;;;16.48;12.03;;;;;;;26.01;58.89;99776.42;1777817;80;21038;-77
2022/08/19 06:18:53;;;;;;;15.30;12.75;;;;;;;26.12;58.81;99782.06;1753803;80;21041;-77
2022/08/19 06:21:22;;;;;;;14.20;12.80;;;;;;;26.20;58.53;99784.22;1766805;80;21396;-76
2022/08/19 06:23:48;;;;;;;17.95;12.30;;;;;;;26.45;58.33;99793.28;1786224;80;21506;-77
2022/08/19 06:26:15;;;;;;;12.88;11.38;;;;;;;26.70;57.95;99795.75;1783435;80;22608;-77
2022/08/19 06:28:44;;;;;;;14.73;11.57;;;;;;;26.81;57.69;99804.11;1777719;80;21058;-77
2022/08/19 06:31:09;;;;;;;16.37;11.53;;;;;;;27.17;57.45;99808.61;1722992;83;21411;-77
2022/08/19 06:33:37;;;;;;;17.07;11.40;;;;;;;27.50;57.01;99815.06;1712729;82;21360;-77
2022/08/19 06:36:04;;;;;;;15.05;11.28;;;;;;;27.58;56.42;99825.36;1710279;82;20956;-77
2022/08/19 06:38:31;;;;;;;12.55;11.15;;;;;;;27.49;56.13;99821.09;1715407;82;21867;-77
2022/08/19 06:41:03;;;;;;;14.70;10.82;;;;;;;27.65;55.88;99829.92;1714562;82;21384;-77
2022/08/19 06:43:29;;;;;;;14.75;11.18;;;;;;;27.59;55.44;99826.97;1732984;82;21010;-77
2022/08/19 06:45:55;;;;;;;14.35;10.68;;;;;;;27.57;55.17;99829.20;1737975;82;21003;-77
2022/08/19 06:48:22;;;;;;;19.90;11.83;;;;;;;27.41;54.93;99818.18;1736868;82;21449;-77
2022/08/19 06:50:49;;;;;;;14.58;11.90;;;;;;;27.33;54.77;99822.94;1734433;82;21851;-77
2022/08/19 06:53:17;;;;;;;15.53;11.05;;;;;;;27.55;54.63;99822.64;1730769;82;20956;-77
2022/08/19 06:55:43;;;;;;;15.45;10.58;;;;;;;27.58;54.21;99811.66;1726156;82;20910;-77
2022/08/19 06:58:10;;;;;;;15.15;11.50;;;;;;;27.62;54.14;99811.34;1729145;82;21026;-77
2022/08/19 07:00:36;;;;;;;12.33;11.12;;;;;;;27.72;53.99;99819.41;1743012;79;21099;-77
2022/08/19 07:03:02;;;;;;;12.45;11.15;;;;;;;27.79;53.68;99829.44;1696721;83;22600;-77
2022/08/19 07:05:28;;;;;;;13.50;11.20;;;;;;;27.92;53.61;99830.60;1764083;80;21050;-77
2022/08/19 07:07:56;;;;;;;17.95;11.90;;;;;;;28.01;53.35;99832.36;1745013;80;21046;-77
2022/08/19 07:10:22;;;;;;;13.50;11.03;;;;;;;27.91;53.07;99828.97;1770893;81;21429;-78
2022/08/19 07:12:49;;;;;;;22.05;11.63;;;;;;;27.93;52.96;99839.91;1770750;81;20983;-77
2022/08/19 07:15:16;;;;;;;12.40;10.98;;;;;;;28.24;52.96;99841.08;1770919;81;21925;-77
2022/08/19 07:17:43;;;;;;;13.05;10.63;;;;;;;28.50;52.70;99851.04;1770494;81;20975;-77
2022/08/19 07:20:10;;;;;;;14.25;11.70;;;;;;;28.66;52.42;99851.59;1770575;81;21023;-78
2022/08/19 07:22:38;;;;;;;18.20;11.35;;;;;;;28.73;52.21;99849.30;1766400;80;21490;-77
2022/08/19 07:25:06;;;;;;;17.25;11.60;;;;;;;28.49;51.92;99850.80;1770013;80;21023;-77
2022/08/19 07:27:32;;;;;;;14.05;11.22;;;;;;;28.50;51.85;99851.04;1771013;81;22373;-77
2022/08/19 07:29:58;;;;;;;15.43;11.45;;;;;;;28.59;51.60;99855.28;1770814;81;21452;-78
2022/08/19 07:32:26;;;;;;;18.10;11.55;;;;;;;28.69;51.41;99850.46;1739985;81;21027;-77
2022/08/19 07:34:52;;;;;;;13.43;10.53;;;;;;;28.62;51.18;99853.31;1722766;81;21396;-77
2022/08/19 07:37:19;;;;;;;13.00;11.45;;;;;;;28.78;51.21;99851.96;1730225;81;21046;-77
2022/08/19 07:39:45;;;;;;;12.40;10.95;;;;;;;28.90;50.91;99857.75;1735712;81;21754;-78
2022/08/19 07:42:11;;;;;;;12.28;11.08;;;;;;;29.03;50.73;99856.12;1767760;81;21457;-78
2022/08/19 07:44:37;;;;;;;11.10;9.78;;;;;;;28.87;50.51;99860.29;1770783;81;20971;-78
2022/08/19 07:47:04;;;;;;;15.13;10.20;;;;;;;29.01;50.52;99864.67;1769027;80;20972;-77
2022/08/19 07:49:31;;;;;;;13.58;10.10;;;;;;;29.09;50.26;99874.14;1768768;80;20983;-78
2022/08/19 07:52:01;;;;;;;13.30;9.45;;;;;;;29.31;50.34;99876.22;1767628;80;21835;-77
2022/08/19 07:54:28;;;;;;;11.57;10.13;;;;;;;29.54;50.00;99880.66;1770765;81;21531;-78
2022/08/19 07:56:55;;;;;;;13.80;10.82;;;;;;;29.54;49.69;99888.91;1770513;81;21010;-78
2022/08/19 07:59:21;;;;;;;12.63;8.65;;;;;;;29.62;49.46;99888.19;1770875;81;21031;-78
2022/08/19 08:01:47;;;;;;;13.40;8.93;;;;;;;29.70;49.20;99886.06;1770797;81;21461;-78
2022/08/19 08:09:43;;;;;;;12.88;8.85;;;;;;;30.02;48.36;99898.28;1757838;80;21018;-78
2022/08/19 08:12:16;;;;;;;21.40;9.08;;;;;;;30.01;47.92;99900.77;1762274;80;21042;-78
2022/08/19 08:14:47;;;;;;;15.35;8.55;;;;;;;30.06;47.81;99899.30;1757430;81;20995;-78
2022/08/19 08:17:16;;;;;;;15.68;9.15;;;;;;;30.09;47.34;99898.67;1750656;81;22014;-78
2022/08/19 08:19:43;;;;;;;14.15;9.45;;;;;;;30.08;47.05;99899.78;1758275;81;21038;-78
2022/08/19 08:23:21;;;;;;;10.18;9.18;;;;;;;30.13;46.98;99900.23;1754940;81;21641;-78
2022/08/19 08:24:37;;;;;;;10.37;7.73;;;;;;;30.17;46.82;99902.63;1754364;80;21026;-78
2022/08/19 08:27:04;;;;;;;12.85;8.65;;;;;;;30.21;46.81;99893.44;1753426;80;21031;-78
2022/08/19 08:29:31;;;;;;;11.18;8.15;;;;;;;30.44;46.66;99897.58;1753516;80;21829;-78
2022/08/19 08:31:57;;;;;;;13.10;7.50;;;;;;;30.63;46.41;99894.89;1749357;81;21063;-78
2022/08/19 08:34:24;;;;;;;10.93;8.85;;;;;;;30.72;45.96;99894.92;1750523;81;21440;-78
2022/08/19 08:36:51;;;;;;;12.90;8.78;;;;;;;30.82;45.76;99893.31;1758679;81;21430;-78
2022/08/19 08:39:20;;;;;;;13.72;8.03;;;;;;;31.04;45.56;99897.39;1749299;81;21046;-77
2022/08/19 08:42:17;;;;;;;10.00;8.03;;;;;;;31.11;45.34;99902.45;1746197;81;21824;-78
2022/08/19 08:44:59;;;;;;;9.68;7.97;;;;;;;31.20;45.23;99901.37;1743291;81;21970;-77
2022/08/19 08:47:26;;;;;;;16.97;7.97;;;;;;;31.07;44.86;99899.52;1749641;81;21487;-78
2022/08/19 08:50:03;;;;;;;11.33;7.47;;;;;;;31.16;44.76;99900.38;1742229;81;21089;-77
2022/08/19 08:52:35;;;;;;;13.83;8.50;;;;;;;31.23;44.57;99892.20;1766414;81;21015;-77
2022/08/19 08:55:11;;;;;;;12.65;8.15;;;;;;;31.18;44.41;99899.48;1757426;80;22845;-77
2022/08/19 08:57:58;;;;;;;10.18;7.97;;;;;;;31.38;44.27;99897.30;1724146;81;21115;-78
2022/08/19 09:00:37;;;;;;;8.33;7.53;;;;;;;31.37;44.07;99901.17;1767060;81;20976;-78
2022/08/19 09:03:10;;;;;;;13.25;7.92;;;;;;;31.49;43.89;99900.00;1781970;80;21045;-78
2022/08/19 09:05:51;;;;;;;12.50;7.67;;;;;;;31.60;43.79;99894.44;1767538;80;21006;-77
2022/08/19 09:08:34;;;;;;;8.88;7.97;;;;;;;31.71;43.57;99891.63;1766472;80;21873;-77
2022/08/19 09:11:02;;;;;;;37.98;9.80;;;;;;;31.82;43.48;99888.80;1756457;80;20928;-78
2022/08/19 09:13:55;;;;;;;21.12;7.92;;;;;;;31.82;43.18;99884.66;1778873;80;20998;-78
2022/08/19 09:16:23;;;;;;;16.62;7.37;;;;;;;31.94;43.02;99876.58;1765160;80;20931;-77
2022/08/19 09:18:53;;;;;;;9.75;7.33;;;;;;;31.87;42.65;99887.28;1770090;80;21399;-77
2022/08/19 09:21:22;;;;;;;16.97;7.20;;;;;;;31.91;42.49;99893.78;1787879;80;22417;-76
2022/08/19 09:23:49;;;;;;;11.45;7.17;;;;;;;31.96;42.57;99882.56;1783348;80;21511;-77
2022/08/19 09:26:17;;;;;;;7.83;6.90;;;;;;;32.04;42.43;99881.77;1762331;80;20987;-77
2022/08/19 09:28:45;;;;;;;13.13;6.42;;;;;;;32.10;42.29;99877.73;1766822;80;21578;-77
2022/08/19 09:31:13;;;;;;;8.55;6.10;;;;;;;31.99;42.06;99870.87;1754505;81;21034;-77
2022/08/19 09:33:39;;;;;;;23.62;6.78;;;;;;;31.97;42.05;99873.16;1758783;80;22847;-77
2022/08/19 09:36:11;;;;;;;10.98;6.60;;;;;;;31.90;41.51;99882.49;1720925;81;20978;-77
2022/08/19 09:38:40;;;;;;;8.55;6.72;;;;;;;31.79;41.04;99893.59;1785283;80;21711;-77
2022/08/19 09:41:13;;;;;;;15.80;8.40;;;;;;;31.80;41.06;99889.70;1782829;80;20988;-77
2022/08/19 09:43:40;;;;;;;9.15;7.62;;;;;;;31.79;41.12;99872.09;1780087;80;21015;-77
2022/08/19 09:46:08;;;;;;;11.93;8.20;;;;;;;31.54;41.35;99881.95;1771195;80;22054;-78
2022/08/19 09:48:37;;;;;;;15.05;7.83;;;;;;;31.52;41.49;99885.61;1750070;80;20995;-77
2022/08/19 09:51:07;;;;;;;16.40;8.35;;;;;;;31.47;41.66;99884.33;1758741;80;21035;-77
2022/08/19 09:53:35;;;;;;;14.05;8.90;;;;;;;31.49;41.79;99877.95;1758785;80;20999;-77
2022/08/19 09:56:02;;;;;;;15.72;9.03;;;;;;;31.53;41.74;99874.23;1748059;80;21021;-77
2022/08/19 09:58:29;;;;;;;19.75;10.48;;;;;;;31.39;41.92;99867.19;1768521;80;22584;-77
2022/08/19 10:00:57;;;;;;;29.05;11.33;;;;;;;31.16;42.23;99853.53;1771149;80;21026;-77
2022/08/19 10:03:23;;;;;;;14.20;11.25;;;;;;;30.94;42.55;99850.82;1778270;80;21431;-77
2022/08/19 10:05:49;;;;;;;13.65;11.30;;;;;;;30.63;42.97;99850.84;1785737;80;21413;-77
2022/08/19 10:08:27;;;;;;;12.98;11.70;;;;;;;30.39;43.39;99872.36;1784142;80;21280;-77
2022/08/19 10:10:54;;;;;;;15.10;11.63;;;;;;;30.30;43.81;99874.78;1785595;80;22795;-77
2022/08/19 10:13:23;;;;;;;20.97;12.33;;;;;;;30.19;44.32;99889.35;1770477;80;21037;-77
2022/08/19 10:15:52;;;;;;;18.95;12.07;;;;;;;30.12;44.56;99892.55;1776908;80;20999;-77
2022/08/19 10:18:19;;;;;;;20.15;11.83;;;;;;;30.00;44.84;99890.10;1766329;78;21489;-77
2022/08/19 10:20:49;;;;;;;17.10;12.68;;;;;;;29.93;45.14;99894.66;1782664;80;20950;-77
2022/08/19 10:23:15;;;;;;;14.18;12.18;;;;;;;29.82;45.29;99882.23;1787131;80;21715;-77
2022/08/19 10:25:42;;;;;;;13.62;12.25;;;;;;;29.73;45.47;99899.22;1722269;83;21045;-77
2022/08/19 10:28:11;;;;;;;16.52;13.18;;;;;;;29.76;45.75;99906.84;1715633;83;21027;-77
2022/08/19 10:30:36;;;;;;;12.82;11.45;;;;;;;29.91;45.81;99918.10;1728266;82;21007;-77
2022/08/19 10:33:03;;;;;;;14.23;11.48;;;;;;;29.97;45.86;99908.05;1719531;82;21026;-77
2022/08/19 10:35:29;;;;;;;14.70;11.95;;;;;;;30.17;45.79;99899.31;1726099;82;21814;-77
2022/08/19 10:37:58;;;;;;;17.52;15.70;;;;;;;30.33;45.58;99912.71;1725787;81;21062;-77
2022/08/19 10:40:26;;;;;;;15.45;13.28;;;;;;;30.31;45.47;99909.44;1712116;82;21023;-77
2022/08/19 10:42:54;;;;;;;14.53;13.05;;;;;;;30.32;45.51;99893.19;1736382;82;21431;-77
2022/08/19 10:45:25;;;;;;;14.40;12.98;;;;;;;30.44;45.50;99885.20;1731914;82;21049;-77
2022/08/19 10:47:48;;;;;;;17.70;13.75;;;;;;;30.48;45.31;99899.96;1719422;82;22017;-76
2022/08/19 10:53:05;;;;;;;15.48;13.85;;;;;;;30.40;45.21;99914.47;1721856;82;21034;-77
2022/08/19 10:58:26;;;;;;;16.75;14.95;;;;;;;30.27;45.25;99919.44;1703175;82;37349;-77
2022/08/19 11:00:57;;;;;;;15.03;12.75;;;;;;;30.36;45.20;99926.66;1713065;82;22026;-77
2022/08/19 11:03:23;;;;;;;18.30;14.58;;;;;;;30.34;45.19;99933.02;1749002;80;21509;-77
2022/08/19 11:06:05;;;;;;;18.02;14.33;;;;;;;30.41;45.21;99930.68;1779832;78;21058;-77
2022/08/19 11:08:31;;;;;;;15.13;13.58;;;;;;;30.29;45.18;99940.59;1780243;80;20891;-77
2022/08/19 11:11:00;;;;;;;14.93;13.43;;;;;;;29.96;45.26;99946.29;1779521;79;20982;-78
2022/08/19 11:13:30;;;;;;;14.68;13.18;;;;;;;29.99;45.39;99937.42;1787246;79;22742;-76
2022/08/19 11:16:03;;;;;;;17.32;13.22;;;;;;;29.98;45.47;99924.78;1769244;79;20911;-73
2022/08/19 11:18:29;;;;;;;15.68;14.07;;;;;;;30.07;45.54;99936.69;1764602;78;21018;-74
2022/08/19 11:20:55;;;;;;;18.23;13.28;;;;;;;29.94;45.45;99934.80;1750379;80;21491;-74
2022/08/19 11:23:21;;;;;;;17.10;14.98;;;;;;;29.85;45.54;99938.56;1719832;81;21057;-74
2022/08/19 11:25:47;;;;;;;14.53;12.93;;;;;;;29.96;45.60;99939.41;1775325;80;22008;-74
2022/08/19 11:28:13;;;;;;;14.58;12.85;;;;;;;30.23;45.55;99928.88;1744034;81;21466;-74
2022/08/19 11:30:39;;;;;;;15.50;13.20;;;;;;;30.51;45.39;99935.12;1781187;79;21007;-73
2022/08/19 11:33:05;;;;;;;19.92;13.80;;;;;;;30.52;45.13;99940.87;1784368;79;21003;-74
2022/08/19 11:35:32;;;;;;;16.95;13.28;;;;;;;30.37;45.00;99943.96;1790206;78;21660;-74
2022/08/19 11:37:59;;;;;;;15.10;13.38;;;;;;;30.35;45.08;99944.84;1785648;80;22424;-75
2022/08/19 11:40:25;;;;;;;20.90;14.90;;;;;;;30.20;45.02;99939.95;1782050;79;20999;-74
2022/08/19 11:42:55;;;;;;;17.05;15.25;;;;;;;30.09;45.09;99937.19;1786237;79;21592;-74
2022/08/19 11:45:22;;;;;;;18.00;15.50;;;;;;;30.01;45.15;99957.16;1783044;80;21030;-74